Time;durP1;ratioP1;P1;durP2;ratioP2;P2;SDS_P1;SDS_P2;PMS_P1;PMS_P2;Temp;Humidity;BMP_temperature;BMP_pressure;BME280_temperature;BME280_humidity;BME280_pressure;Samples;Min_cycle;Max_cycle;Signal;HPM_P1;HPM_P2
2023/04/15 00:01:42;;;;;;;;;;;;;;;7.80;73.30;99421.69;5357341;32;33813;-64
2023/04/15 00:04:44;;;;;;;;;;;;;;;8.12;71.68;99422.06;5365000;32;35539;-64
2023/04/15 00:07:46;;;;;;;;;;;;;;;8.41;69.49;99402.44;5365039;32;34444;-64
2023/04/15 00:10:49;;;;;;;;;;;;;;;9.31;67.84;99413.03;5379594;32;34338;-77
2023/04/15 00:13:51;;;;;;;;;;;;;;;8.91;67.50;99418.41;5359308;32;33127;-72
2023/04/15 00:16:55;;;;;;;;;;;;;;;8.32;69.25;99415.94;5363985;32;34047;-76
2023/04/15 00:19:58;;;;;;;;;;;;;;;7.83;74.29;99425.94;5358655;32;33992;-71
2023/04/15 00:23:01;;;;;;;;;;;;;;;8.43;70.71;99424.16;5355971;32;33889;-65
2023/04/15 00:26:03;;;;;;;;;;;;;;;7.99;72.11;99419.13;5361107;32;33735;-66
2023/04/15 00:29:05;;;;;;;;;;;;;;;8.45;71.35;99417.09;5354367;32;34076;-76
2023/04/15 00:32:08;;;;;;;;;;;;;;;8.76;69.75;99416.53;5346560;32;37641;-76
2023/04/15 00:35:10;;;;;;;;;;;;;;;9.22;68.04;99419.56;5355165;32;33916;-66
2023/04/15 00:38:12;;;;;;;;;;;;;;;8.16;71.09;99421.00;5366450;32;47577;-77
2023/04/15 00:41:14;;;;;;;;;;;;;;;8.71;69.60;99415.91;5353275;32;35219;-65
2023/04/15 00:44:17;;;;;;;;;;;;;;;8.53;71.59;99414.13;5352735;32;34387;-77
2023/04/15 00:47:20;;;;;;;;;;;;;;;8.65;71.33;99411.78;5360254;32;34364;-78
2023/04/15 00:50:21;;;;;;;;;;;;;;;7.95;73.15;99401.84;5353093;32;34246;-64
2023/04/15 00:53:23;;;;;;;;;;;;;;;8.32;72.13;99408.06;5368984;32;33439;-78
2023/04/15 00:56:26;;;;;;;;;;;;;;;8.65;70.16;99408.31;5351484;32;33484;-76
2023/04/15 00:59:28;;;;;;;;;;;;;;;9.13;69.38;99410.38;5367216;32;33448;-65
2023/04/15 01:02:30;;;;;;;;;;;;;;;8.28;71.92;99409.97;5368729;32;34053;-64
2023/04/15 01:05:33;;;;;;;;;;;;;;;8.72;70.96;99404.50;5355577;32;33281;-63
2023/04/15 01:08:35;;;;;;;;;;;;;;;8.72;70.56;99401.03;5369051;32;33822;-64
2023/04/15 01:11:37;;;;;;;;;;;;;;;9.59;67.10;99392.34;5350967;32;33845;-76
2023/04/15 01:14:39;;;;;;;;;;;;;;;8.41;70.37;99399.81;5367826;32;34000;-65
2023/04/15 01:17:41;;;;;;;;;;;;;;;8.85;69.38;99389.03;5362202;32;45381;-64
2023/04/15 01:20:43;;;;;;;;;;;;;;;8.15;74.16;99396.59;5362733;32;33719;-77
2023/04/15 01:23:46;;;;;;;;;;;;;;;8.68;70.89;99393.28;5350741;32;34317;-75
2023/04/15 01:26:49;;;;;;;;;;;;;;;8.39;72.49;99392.03;5352312;32;34248;-76
2023/04/15 01:29:51;;;;;;;;;;;;;;;9.40;69.13;99378.47;5376462;32;33804;-64
2023/04/15 01:32:53;;;;;;;;;;;;;;;9.41;67.56;99383.66;5341588;32;35382;-63
2023/04/15 01:35:56;;;;;;;;;;;;;;;9.90;65.37;99399.50;5371886;32;34739;-77
2023/04/15 01:38:58;;;;;;;;;;;;;;;8.30;72.37;99402.03;5358766;32;33257;-64
2023/04/15 01:42:00;;;;;;;;;;;;;;;8.18;72.58;99405.22;5358890;32;34411;-63
2023/04/15 01:45:02;;;;;;;;;;;;;;;8.43;72.88;99404.97;5354367;32;35249;-76
2023/04/15 01:48:04;;;;;;;;;;;;;;;8.91;70.75;99396.63;5352615;32;33856;-64
2023/04/15 01:51:07;;;;;;;;;;;;;;;8.26;71.83;99405.72;5359487;32;35717;-64
2023/04/15 01:54:09;;;;;;;;;;;;;;;8.83;71.34;99406.63;5364788;32;34939;-64
2023/04/15 01:57:11;;;;;;;;;;;;;;;8.18;73.89;99406.09;5374441;32;43791;-64
2023/04/15 02:00:13;;;;;;;;;;;;;;;8.64;71.16;99404.84;5365479;32;34336;-66
2023/04/15 02:03:14;;;;;;;;;;;;;;;8.53;71.66;99412.34;5373261;32;34175;-77
2023/04/15 02:06:17;;;;;;;;;;;;;;;9.37;68.87;99404.84;5365245;32;34651;-78
2023/04/15 02:09:19;;;;;;;;;;;;;;;10.12;65.01;99395.75;5358096;32;33759;-78
2023/04/15 02:12:21;;;;;;;;;;;;;;;8.89;69.19;99401.94;5366206;32;33439;-65
2023/04/15 02:15:23;;;;;;;;;;;;;;;8.33;72.82;99420.25;5366035;32;33630;-65
2023/04/15 02:18:25;;;;;;;;;;;;;;;8.49;71.00;99397.69;5372426;32;33515;-64
2023/04/15 02:21:27;;;;;;;;;;;;;;;8.20;73.96;99411.25;5362092;32;35195;-73
2023/04/15 02:24:29;;;;;;;;;;;;;;;8.14;73.50;99413.22;5359351;32;34420;-77
2023/04/15 02:27:31;;;;;;;;;;;;;;;8.38;72.84;99410.44;5360040;32;33888;-76
2023/04/15 02:30:33;;;;;;;;;;;;;;;9.97;66.37;99407.91;5347657;32;33993;-64
2023/04/15 02:33:36;;;;;;;;;;;;;;;10.11;64.99;99410.66;5362518;32;33881;-76
2023/04/15 02:36:39;;;;;;;;;;;;;;;8.28;72.32;99423.06;5359317;32;34347;-64
2023/04/15 02:39:41;;;;;;;;;;;;;;;8.34;72.33;99429.78;5374477;32;44396;-76
2023/04/15 02:42:43;;;;;;;;;;;;;;;8.24;73.39;99426.72;5358623;32;33863;-64
2023/04/15 02:45:46;;;;;;;;;;;;;;;8.35;74.15;99424.50;5368154;32;33810;-64
2023/04/15 02:48:48;;;;;;;;;;;;;;;8.38;72.59;99418.31;5363388;32;34996;-64
2023/04/15 02:51:50;;;;;;;;;;;;;;;8.59;71.91;99408.59;5352131;32;33979;-73
2023/04/15 02:54:56;;;;;;;;;;;;;;;8.28;73.44;99424.84;5360320;32;33615;-63
2023/04/15 02:57:59;;;;;;;;;;;;;;;9.05;71.60;99412.50;5353311;32;33655;-72
2023/04/15 03:01:01;;;;;;;;;;;;;;;9.44;70.05;99414.97;5372851;32;34188;-65
2023/04/15 03:04:03;;;;;;;;;;;;;;;8.31;74.13;99414.25;5363781;32;33375;-75
2023/04/15 03:07:05;;;;;;;;;;;;;;;8.56;73.07;99409.59;5365842;32;33895;-78
2023/04/15 03:10:07;;;;;;;;;;;;;;;8.67;73.29;99412.56;5372984;32;34336;-76
2023/04/15 03:13:09;;;;;;;;;;;;;;;8.42;73.20;99412.00;5365007;32;33973;-76
2023/04/15 03:16:11;;;;;;;;;;;;;;;8.56;73.74;99408.72;5373472;32;44631;-63
2023/04/15 03:19:13;;;;;;;;;;;;;;;9.23;70.01;99397.66;5349370;32;34520;-62
2023/04/15 03:22:15;;;;;;;;;;;;;;;9.92;67.23;99402.91;5363316;32;33448;-76
2023/04/15 03:25:17;;;;;;;;;;;;;;;9.82;65.97;99399.06;5368613;32;33965;-64
2023/04/15 03:28:19;;;;;;;;;;;;;;;9.57;66.97;99402.06;5371800;32;33618;-65
2023/04/15 03:31:21;;;;;;;;;;;;;;;9.64;68.80;99403.47;5351979;32;33266;-74
2023/04/15 03:34:23;;;;;;;;;;;;;;;10.36;65.19;99394.47;5359527;32;33153;-78
2023/04/15 03:37:25;;;;;;;;;;;;;;;10.24;65.88;99406.50;5370948;32;33711;-78
2023/04/15 03:40:26;;;;;;;;;;;;;;;9.73;67.29;99408.25;5360006;32;34132;-64
2023/04/15 03:43:29;;;;;;;;;;;;;;;9.38;69.88;99410.00;5369151;32;35886;-76
2023/04/15 03:46:30;;;;;;;;;;;;;;;9.07;70.47;99413.28;5363671;32;33929;-63
2023/04/15 03:49:32;;;;;;;;;;;;;;;8.71;72.24;99417.66;5359860;32;34409;-65
2023/04/15 03:52:35;;;;;;;;;;;;;;;9.06;71.41;99415.97;5362004;32;33925;-76
2023/04/15 03:55:36;;;;;;;;;;;;;;;9.10;71.59;99404.44;5350855;32;34769;-64
2023/04/15 03:58:38;;;;;;;;;;;;;;;9.49;70.83;99410.34;5362042;32;34447;-72
2023/04/15 04:01:40;;;;;;;;;;;;;;;9.33;69.72;99408.53;5351652;32;44897;-64
2023/04/15 04:04:42;;;;;;;;;;;;;;;10.11;67.89;99401.91;5371271;32;33252;-76
2023/04/15 04:07:44;;;;;;;;;;;;;;;9.15;71.41;99398.06;5357303;32;33424;-63
2023/04/15 04:10:46;;;;;;;;;;;;;;;8.78;72.77;99398.97;5354886;32;33111;-63
2023/04/15 04:13:48;;;;;;;;;;;;;;;8.98;73.54;99399.78;5357599;32;33176;-76
2023/04/15 04:16:50;;;;;;;;;;;;;;;8.40;75.48;99400.75;5347486;32;34529;-64
2023/04/15 04:19:52;;;;;;;;;;;;;;;8.93;73.99;99407.84;5360065;32;34730;-73
2023/04/15 04:22:54;;;;;;;;;;;;;;;8.77;75.04;99404.28;5356599;32;33859;-65
2023/04/15 04:25:56;;;;;;;;;;;;;;;8.86;74.06;99409.06;5378764;32;33421;-63
2023/04/15 04:28:58;;;;;;;;;;;;;;;8.62;74.33;99409.31;5366882;32;33848;-71
2023/04/15 04:32:00;;;;;;;;;;;;;;;8.66;75.00;99408.25;5342909;32;33459;-76
2023/04/15 04:35:03;;;;;;;;;;;;;;;9.02;74.73;99402.19;5356801;32;33959;-77
2023/04/15 04:38:05;;;;;;;;;;;;;;;9.49;73.18;99396.38;5349380;32;34433;-63
2023/04/15 04:41:06;;;;;;;;;;;;;;;9.99;69.14;99398.19;5360695;32;34196;-63
2023/04/15 04:44:08;;;;;;;;;;;;;;;10.15;67.81;99396.44;5360185;32;34864;-77
2023/04/15 04:47:10;;;;;;;;;;;;;;;10.31;69.18;99393.88;5355539;32;44132;-75
2023/04/15 04:50:12;;;;;;;;;;;;;;;10.95;65.53;99392.97;5349343;32;34129;-64
2023/04/15 04:53:15;;;;;;;;;;;;;;;10.54;67.30;99392.63;5364093;32;33203;-65
2023/04/15 04:56:17;;;;;;;;;;;;;;;10.05;68.37;99390.00;5375836;32;33930;-65
2023/04/15 04:59:18;;;;;;;;;;;;;;;11.45;63.82;99405.00;5364421;32;33449;-64
2023/04/15 05:02:20;;;;;;;;;;;;;;;12.14;61.66;99387.75;5375635;32;34428;-76
2023/04/15 05:05:22;;;;;;;;;;;;;;;12.36;60.99;99389.88;5360929;32;34520;-63
2023/04/15 05:08:25;;;;;;;;;;;;;;;12.01;61.64;99398.19;5366307;32;34062;-77
2023/04/15 05:11:27;;;;;;;;;;;;;;;11.68;61.66;99373.84;5380166;32;34215;-64
2023/04/15 05:14:29;;;;;;;;;;;;;;;12.83;58.84;99397.47;5354692;32;35721;-65
2023/04/15 05:17:32;;;;;;;;;;;;;;;12.24;59.56;99380.16;5370472;32;34544;-73
2023/04/15 05:20:34;;;;;;;;;;;;;;;12.32;59.76;99397.16;5364062;32;34447;-64
2023/04/15 05:23:36;;;;;;;;;;;;;;;11.24;63.73;99408.88;5364341;32;34090;-77
2023/04/15 05:26:38;;;;;;;;;;;;;;;11.11;63.57;99408.72;5358333;32;33294;-77
2023/04/15 05:29:40;;;;;;;;;;;;;;;10.99;65.06;99405.00;5362638;32;44686;-75
2023/04/15 05:32:42;;;;;;;;;;;;;;;12.28;60.53;99387.75;5366209;32;33963;-63
2023/04/15 05:35:44;;;;;;;;;;;;;;;11.50;62.19;99410.84;5355566;32;32859;-76
2023/04/15 05:38:46;;;;;;;;;;;;;;;11.12;63.40;99407.78;5366318;32;33700;-65
2023/04/15 05:41:48;;;;;;;;;;;;;;;10.68;66.22;99408.47;5356404;32;34064;-63
2023/04/15 05:44:50;;;;;;;;;;;;;;;10.84;65.93;99390.94;5362553;32;33659;-64
2023/04/15 05:47:53;;;;;;;;;;;;;;;10.96;65.54;99409.59;5347788;32;34339;-73
2023/04/15 05:50:55;;;;;;;;;;;;;;;10.19;68.43;99416.34;5356816;32;33330;-76
2023/04/15 05:53:57;;;;;;;;;;;;;;;10.80;66.80;99426.19;5350343;32;34434;-63
2023/04/15 05:56:59;;;;;;;;;;;;;;;11.69;63.98;99415.88;5348591;32;33654;-76
2023/04/15 06:00:02;;;;;;;;;;;;;;;11.79;62.12;99413.56;5359891;32;33427;-64
2023/04/15 06:03:05;;;;;;;;;;;;;;;10.95;65.23;99424.53;5348415;32;34124;-64
2023/04/15 06:06:07;;;;;;;;;;;;;;;10.87;66.92;99436.37;5378921;32;34408;-77
2023/04/15 06:09:10;;;;;;;;;;;;;;;10.85;65.65;99433.84;5353635;32;33762;-79
2023/04/15 06:12:12;;;;;;;;;;;;;;;10.36;68.54;99438.28;5372392;32;47238;-64
2023/04/15 06:15:14;;;;;;;;;;;;;;;11.54;64.24;99432.56;5357309;32;35346;-74
2023/04/15 06:18:16;;;;;;;;;;;;;;;10.72;66.42;99438.91;5360715;32;34451;-64
2023/04/15 06:21:18;;;;;;;;;;;;;;;10.05;69.75;99447.75;5373182;32;34366;-76
2023/04/15 06:24:20;;;;;;;;;;;;;;;10.58;67.37;99442.31;5349342;32;33421;-63
2023/04/15 06:27:22;;;;;;;;;;;;;;;10.93;66.97;99446.56;5358769;32;33768;-64
2023/04/15 06:30:24;;;;;;;;;;;;;;;10.59;67.71;99456.28;5331755;32;33359;-77
2023/04/15 06:33:26;;;;;;;;;;;;;;;9.92;71.59;99437.03;5357928;32;35238;-79
2023/04/15 06:36:29;;;;;;;;;;;;;;;11.65;66.95;99459.94;5365074;32;33927;-78
2023/04/15 06:39:31;;;;;;;;;;;;;;;13.68;59.87;99440.31;5360938;32;33849;-77
2023/04/15 06:42:33;;;;;;;;;;;;;;;13.98;56.01;99454.09;5371429;32;34818;-78
2023/04/15 06:45:35;;;;;;;;;;;;;;;13.86;56.51;99444.37;5361456;32;34876;-64
2023/04/15 06:48:37;;;;;;;;;;;;;;;13.99;55.41;99445.22;5367505;32;34369;-77
2023/04/15 06:51:39;;;;;;;;;;;;;;;14.16;54.94;99449.34;5351563;32;37231;-63
2023/04/15 06:54:41;;;;;;;;;;;;;;;13.28;58.06;99458.78;5366432;32;44525;-64
2023/04/15 06:57:43;;;;;;;;;;;;;;;14.07;54.66;99458.75;5365980;32;33570;-64
2023/04/15 07:00:45;;;;;;;;;;;;;;;13.53;56.94;99458.88;5365412;32;33361;-78
2023/04/15 07:03:47;;;;;;;;;;;;;;;13.67;56.33;99454.47;5371287;32;34943;-78
2023/04/15 07:06:49;;;;;;;;;;;;;;;14.03;54.88;99449.34;5354255;32;33676;-78
2023/04/15 07:09:52;;;;;;;;;;;;;;;13.59;56.89;99457.63;5370317;32;34577;-64
2023/04/15 07:12:54;;;;;;;;;;;;;;;15.99;49.87;99453.78;5352811;32;34004;-65
2023/04/15 07:15:56;;;;;;;;;;;;;;;14.73;51.96;99454.19;5360944;32;33573;-65
2023/04/15 07:18:58;;;;;;;;;;;;;;;15.50;50.48;99460.06;5353886;32;35457;-78
2023/04/15 07:22:01;;;;;;;;;;;;;;;14.59;52.02;99459.63;5359406;32;34553;-64
2023/04/15 07:25:03;;;;;;;;;;;;;;;15.66;50.23;99451.87;5363740;32;36508;-64
2023/04/15 07:28:06;;;;;;;;;;;;;;;15.84;48.87;99455.81;5350495;32;34332;-64
2023/04/15 07:31:08;;;;;;;;;;;;;;;17.06;45.90;99445.37;5338644;32;33733;-65
2023/04/15 07:34:10;;;;;;;;;;;;;;;17.54;44.35;99451.16;5355492;32;44937;-64
2023/04/15 07:37:12;;;;;;;;;;;;;;;16.51;45.59;99460.37;5369853;32;34590;-78
2023/04/15 07:40:15;;;;;;;;;;;;;;;16.17;47.93;99462.97;5367357;32;33994;-78
2023/04/15 07:43:17;;;;;;;;;;;;;;;15.80;48.17;99454.34;5355650;32;33597;-78
2023/04/15 07:46:19;;;;;;;;;;;;;;;18.01;43.67;99448.19;5364456;32;33911;-65
2023/04/15 07:49:21;;;;;;;;;;;;;;;16.86;45.48;99456.75;5352385;32;34762;-73
2023/04/15 07:52:23;;;;;;;;;;;;;;;16.68;45.62;99445.75;5358188;32;33780;-77
2023/04/15 07:55:25;;;;;;;;;;;;;;;16.38;46.33;99455.16;5363632;32;34865;-64
2023/04/15 07:58:29;;;;;;;;;;;;;;;16.49;46.08;99449.03;5371845;32;33317;-65
2023/04/15 08:01:31;;;;;;;;;;;;;;;17.23;44.46;99447.50;5372724;32;33336;-78
2023/04/15 08:04:33;;;;;;;;;;;;;;;17.94;42.70;99449.69;5355081;32;33734;-71
2023/04/15 08:07:36;;;;;;;;;;;;;;;17.36;43.46;99452.66;5364413;32;33901;-65
2023/04/15 08:10:38;;;;;;;;;;;;;;;17.64;41.69;99450.38;5349832;32;33884;-71
2023/04/15 08:13:40;;;;;;;;;;;;;;;16.94;42.79;99447.22;5365881;32;42885;-66
2023/04/15 08:16:42;;;;;;;;;;;;;;;16.99;42.83;99460.13;5362095;32;33680;-63
2023/04/15 08:19:44;;;;;;;;;;;;;;;14.73;48.30;99466.56;5360744;32;33361;-76
2023/04/15 08:22:50;;;;;;;;;;;;;;;15.10;47.59;99470.94;5366581;32;34625;-65
2023/04/15 08:25:52;;;;;;;;;;;;;;;15.40;46.94;99461.72;5355639;32;34033;-65
2023/04/15 08:28:54;;;;;;;;;;;;;;;14.70;47.62;99478.22;5369757;32;34359;-64
2023/04/15 08:31:56;;;;;;;;;;;;;;;14.72;47.22;99470.19;5339953;32;34995;-64
2023/04/15 08:34:58;;;;;;;;;;;;;;;15.52;45.83;99466.13;5365825;32;33708;-79
2023/04/15 08:38:00;;;;;;;;;;;;;;;15.53;45.90;99467.81;5356802;32;34545;-66
2023/04/15 08:41:06;;;;;;;;;;;;;;;15.70;45.37;99470.06;5362005;32;33272;-78
2023/04/15 08:44:08;;;;;;;;;;;;;;;15.61;45.04;99478.66;5370805;32;33889;-79
2023/04/15 08:47:12;;;;;;;;;;;;;;;15.80;44.77;99474.69;5356984;32;44781;-78
2023/04/15 08:50:14;;;;;;;;;;;;;;;14.46;47.69;99479.91;5362974;32;34981;-76
2023/04/15 08:53:16;;;;;;;;;;;;;;;15.11;46.54;99482.37;5364196;32;32559;-78
2023/04/15 08:56:18;;;;;;;;;;;;;;;15.59;45.45;99477.94;5363612;32;34730;-77
2023/04/15 08:59:20;;;;;;;;;;;;;;;16.10;43.22;99471.50;5367773;32;34407;-78
2023/04/15 09:02:23;;;;;;;;;;;;;;;17.68;40.50;99468.63;5353214;32;33825;-64
2023/04/15 09:05:25;;;;;;;;;;;;;;;18.75;37.31;99475.50;5356416;32;34520;-78
2023/04/15 09:08:27;;;;;;;;;;;;;;;18.21;38.60;99479.22;5351952;32;34524;-73
2023/04/15 09:11:30;;;;;;;;;;;;;;;19.54;35.43;99467.53;5361013;32;34357;-64
2023/04/15 09:14:32;;;;;;;;;;;;;;;19.43;35.93;99475.66;5355045;32;33980;-64
2023/04/15 09:17:34;;;;;;;;;;;;;;;18.88;36.81;99465.47;5373043;32;34376;-65
2023/04/15 09:20:43;;;;;;;;;;;;;;;18.88;36.18;99464.62;5352506;32;33247;-80
2023/04/15 09:23:56;;;;;;;;;;;;;;;17.27;39.45;99494.09;5370498;32;46818;-65
2023/04/15 09:26:58;;;;;;;;;;;;;;;17.69;38.32;99483.59;5371672;32;33795;-64
2023/04/15 09:30:00;;;;;;;;;;;;;;;18.07;38.21;99480.41;5350419;32;34022;-77
2023/04/15 09:33:07;;;;;;;;;;;;;;;18.29;37.87;99482.09;5354088;32;34631;-72
2023/04/15 09:36:09;;;;;;;;;;;;;;;16.40;41.56;99481.56;5350645;32;33695;-76
2023/04/15 09:39:11;;;;;;;;;;;;;;;15.57;43.57;99489.59;5355208;32;44445;-65
2023/04/15 09:42:13;;;;;;;;;;;;;;;14.57;46.77;99486.19;5369176;32;34226;-64
2023/04/15 09:45:15;;;;;;;;;;;;;;;14.95;46.91;99485.28;5363940;32;33871;-78
2023/04/15 09:48:27;;;;;;;;;;;;;;;15.29;45.93;99483.69;5374241;32;34670;-79
2023/04/15 09:51:36;;;;;;;;;;;;;;;16.25;43.38;99479.12;5362419;32;34708;-65
2023/04/15 09:54:38;;;;;;;;;;;;;;;15.60;44.58;99486.72;5365883;32;33116;-77
2023/04/15 09:57:40;;;;;;;;;;;;;;;16.57;42.33;99467.84;5360308;32;33798;-63
2023/04/15 10:00:42;;;;;;;;;;;;;;;15.80;44.57;99477.34;5362468;32;45697;-79
2023/04/15 10:03:44;;;;;;;;;;;;;;;15.83;44.55;99491.19;5369888;32;34584;-77
2023/04/15 10:06:47;;;;;;;;;;;;;;;15.17;46.13;99490.69;5364746;32;34414;-65
2023/04/15 10:09:49;;;;;;;;;;;;;;;14.83;47.07;99500.22;5374785;32;35564;-75
2023/04/15 10:12:51;;;;;;;;;;;;;;;14.60;47.72;99504.47;5367227;32;33992;-74
2023/04/15 10:16:00;;;;;;;;;;;;;;;13.44;51.06;99517.53;5374343;32;33579;-62
2023/04/15 10:19:03;;;;;;;;;;;;;;;13.76;51.42;99507.50;5368692;32;35618;-63
2023/04/15 10:22:05;;;;;;;;;;;;;;;14.67;47.38;99504.03;5360283;32;34046;-78
2023/04/15 10:25:07;;;;;;;;;;;;;;;13.65;49.98;99501.22;5359197;32;35262;-64
2023/04/15 10:28:09;;;;;;;;;;;;;;;13.91;50.06;99518.88;5350151;32;33304;-77
2023/04/15 10:31:12;;;;;;;;;;;;;;;14.45;49.33;99513.44;5335872;32;45363;-63
2023/04/15 10:34:14;;;;;;;;;;;;;;;13.79;51.62;99517.03;5361190;32;33962;-76
2023/04/15 10:37:36;;;;;;;;;;;;;;;13.93;51.02;99514.31;5372685;32;34964;-64
2023/04/15 10:40:38;;;;;;;;;;;;;;;14.72;49.07;99516.00;5372647;32;33764;-63
2023/04/15 10:43:58;;;;;;;;;;;;;;;14.58;48.57;99505.53;5355874;32;34603;-78
2023/04/15 10:47:00;;;;;;;;;;;;;;;14.43;47.71;99511.84;5365021;32;33183;-77
2023/04/15 10:50:02;;;;;;;;;;;;;;;14.84;47.61;99523.06;5355005;32;33202;-63
2023/04/15 10:53:04;;;;;;;;;;;;;;;14.69;48.74;99518.84;5361604;32;32971;-78
2023/04/15 10:56:06;;;;;;;;;;;;;;;15.15;47.84;99515.59;5375127;32;33786;-64
2023/04/15 10:59:08;;;;;;;;;;;;;;;14.29;50.21;99532.12;5360718;32;34219;-64
2023/04/15 11:02:11;;;;;;;;;;;;;;;13.89;51.92;99533.12;5365998;32;46900;-65
2023/04/15 11:05:14;;;;;;;;;;;;;;;13.49;52.88;99533.94;5354375;32;33206;-76
2023/04/15 11:08:16;;;;;;;;;;;;;;;12.91;55.86;99558.69;5366805;32;34346;-64
2023/04/15 11:11:18;;;;;;;;;;;;;;;12.63;56.81;99543.72;5351569;32;33652;-77
2023/04/15 11:14:20;;;;;;;;;;;;;;;12.99;55.88;99539.75;5367874;32;34336;-77
2023/04/15 11:17:26;;;;;;;;;;;;;;;12.41;58.59;99552.06;5363655;32;33944;-74
2023/04/15 11:20:28;;;;;;;;;;;;;;;12.56;59.01;99554.69;5359218;32;34093;-64
2023/04/15 11:23:36;;;;;;;;;;;;;;;12.56;57.51;99536.25;5363950;32;33170;-64
2023/04/15 11:26:38;;;;;;;;;;;;;;;13.02;56.17;99547.47;5348185;32;33062;-63
2023/04/15 11:29:40;;;;;;;;;;;;;;;13.37;54.99;99542.63;5345452;32;42695;-64
2023/04/15 11:32:42;;;;;;;;;;;;;;;14.43;51.06;99536.50;5343964;32;34463;-64
2023/04/15 11:35:45;;;;;;;;;;;;;;;14.92;50.36;99534.91;5370034;32;33772;-63
2023/04/15 11:38:46;;;;;;;;;;;;;;;15.02;49.37;99530.66;5367171;32;34108;-78
2023/04/15 11:41:48;;;;;;;;;;;;;;;15.58;48.72;99528.34;5358164;32;34327;-77
2023/04/15 11:44:53;;;;;;;;;;;;;;;16.19;46.88;99529.13;5374444;32;33992;-66
2023/04/15 11:47:57;;;;;;;;;;;;;;;16.75;45.66;99527.47;5364761;32;33203;-64
2023/04/15 11:51:00;;;;;;;;;;;;;;;16.44;46.36;99544.88;5369054;32;33299;-78
2023/04/15 11:54:02;;;;;;;;;;;;;;;17.07;43.63;99542.66;5360858;32;33398;-65
2023/04/15 11:57:05;;;;;;;;;;;;;;;15.54;47.54;99543.66;5358485;32;33329;-63
2023/04/15 12:00:08;;;;;;;;;;;;;;;16.01;46.22;99549.06;5372041;32;34201;-65
2023/04/15 12:03:16;;;;;;;;;;;;;;;14.97;48.99;99551.31;5357715;32;45330;-75
2023/04/15 12:06:19;;;;;;;;;;;;;;;15.68;46.13;99548.81;5365403;32;33926;-65
2023/04/15 12:09:21;;;;;;;;;;;;;;;15.98;46.19;99555.47;5365973;32;33197;-65
2023/04/15 12:12:27;;;;;;;;;;;;;;;15.82;46.34;99541.63;5361606;32;34174;-78
2023/04/15 12:15:29;;;;;;;;;;;;;;;15.63;46.93;99536.84;5360518;32;34141;-77
2023/04/15 12:18:31;;;;;;;;;;;;;;;16.58;45.55;99551.75;5361069;32;33956;-64
2023/04/15 12:21:34;;;;;;;;;;;;;;;16.39;45.61;99532.91;5375325;32;35280;-63
2023/04/15 12:24:36;;;;;;;;;;;;;;;16.73;44.72;99547.94;5358850;32;33270;-78
2023/04/15 12:27:38;;;;;;;;;;;;;;;16.20;46.34;99552.03;5365379;32;33861;-64
2023/04/15 12:30:50;;;;;;;;;;;;;;;15.99;46.33;99549.19;5344606;32;46767;-78
2023/04/15 12:33:55;;;;;;;;;;;;;;;15.20;48.07;99549.66;5362387;32;34645;-64
2023/04/15 12:36:58;;;;;;;;;;;;;;;16.44;44.42;99536.91;5355029;32;35335;-79
2023/04/15 12:40:00;;;;;;;;;;;;;;;15.03;48.67;99559.66;5363062;32;34528;-77
2023/04/15 12:43:02;;;;;;;;;;;;;;;15.57;46.97;99548.69;5364360;32;33869;-77
2023/04/15 12:46:04;;;;;;;;;;;;;;;14.93;48.31;99553.31;5357490;32;35295;-65
2023/04/15 12:49:06;;;;;;;;;;;;;;;16.09;45.52;99560.78;5368752;32;33632;-78
2023/04/15 12:52:08;;;;;;;;;;;;;;;15.16;47.52;99567.56;5357146;32;35125;-79
2023/04/15 12:55:11;;;;;;;;;;;;;;;14.81;49.59;99567.37;5366962;32;43806;-64
2023/04/15 12:58:13;;;;;;;;;;;;;;;14.45;50.89;99568.94;5368361;32;35759;-76
2023/04/15 13:01:14;;;;;;;;;;;;;;;14.81;48.94;99570.03;5366190;32;33993;-74
2023/04/15 13:04:16;;;;;;;;;;;;;;;14.14;51.01;99577.25;5370906;32;34268;-78
2023/04/15 13:07:18;;;;;;;;;;;;;;;13.57;53.23;99583.59;5355417;32;34095;-78
2023/04/15 13:10:21;;;;;;;;;;;;;;;13.38;53.96;99576.00;5359100;32;34646;-77
2023/04/15 13:13:23;;;;;;;;;;;;;;;13.94;52.44;99574.13;5362813;32;33407;-78
2023/04/15 13:16:25;;;;;;;;;;;;;;;14.38;51.38;99572.97;5369924;32;35620;-63
2023/04/15 13:19:27;;;;;;;;;;;;;;;15.17;48.23;99569.25;5361676;32;34212;-64
2023/04/15 13:22:29;;;;;;;;;;;;;;;14.09;50.52;99586.31;5365554;32;34670;-78
2023/04/15 13:25:31;;;;;;;;;;;;;;;14.66;50.08;99584.31;5374588;32;35309;-79
2023/04/15 13:28:33;;;;;;;;;;;;;;;13.86;52.40;99580.88;5362877;32;33377;-65
2023/04/15 13:31:35;;;;;;;;;;;;;;;14.12;52.15;99582.63;5350099;32;33288;-64
2023/04/15 13:34:37;;;;;;;;;;;;;;;14.87;50.08;99575.75;5349780;32;34036;-78
2023/04/15 13:37:39;;;;;;;;;;;;;;;15.06;48.67;99580.59;5356189;32;33876;-78
2023/04/15 13:40:41;;;;;;;;;;;;;;;15.80;47.11;99576.22;5352544;32;44469;-77
2023/04/15 13:43:43;;;;;;;;;;;;;;;15.57;46.73;99580.47;5348917;32;34319;-78
2023/04/15 13:46:45;;;;;;;;;;;;;;;14.05;50.67;99570.78;5354798;32;34141;-64
2023/04/15 13:49:47;;;;;;;;;;;;;;;15.06;48.67;99583.25;5346401;32;34217;-79
2023/04/15 13:52:49;;;;;;;;;;;;;;;15.56;46.39;99568.19;5368164;32;34535;-78
2023/04/15 13:55:51;;;;;;;;;;;;;;;15.20;47.56;99571.72;5364574;32;33455;-65
2023/04/15 13:58:57;;;;;;;;;;;;;;;14.73;49.32;99596.19;5369081;32;33994;-77
2023/04/15 14:01:59;;;;;;;;;;;;;;;14.12;51.23;99597.66;5365511;32;35029;-65
2023/04/15 14:05:01;;;;;;;;;;;;;;;14.01;52.29;99596.56;5363938;32;34224;-65
2023/04/15 14:08:03;;;;;;;;;;;;;;;13.88;52.42;99594.81;5360421;32;34188;-78
2023/04/15 14:11:05;;;;;;;;;;;;;;;14.11;52.52;99598.59;5359268;32;34209;-77
2023/04/15 14:14:07;;;;;;;;;;;;;;;14.54;50.86;99594.78;5365411;32;33040;-64
2023/04/15 14:17:09;;;;;;;;;;;;;;;15.21;49.38;99599.88;5356102;32;33325;-79
2023/04/15 14:20:11;;;;;;;;;;;;;;;15.38;49.19;99594.19;5369163;32;47383;-78
2023/04/15 14:23:17;;;;;;;;;;;;;;;15.81;48.10;99595.59;5357509;32;35528;-78
2023/04/15 14:26:19;;;;;;;;;;;;;;;16.03;47.03;99590.37;5360636;32;35788;-78
2023/04/15 14:29:21;;;;;;;;;;;;;;;15.81;47.83;99612.34;5364433;32;33937;-79
2023/04/15 14:32:24;;;;;;;;;;;;;;;15.31;49.25;99619.44;5341011;32;35142;-77
2023/04/15 14:35:26;;;;;;;;;;;;;;;15.56;49.23;99615.88;5359222;32;34970;-62
2023/04/15 14:38:28;;;;;;;;;;;;;;;14.70;51.57;99621.06;5348644;32;34396;-65
2023/04/15 14:41:30;;;;;;;;;;;;;;;13.77;54.19;99619.28;5351905;32;35538;-78
2023/04/15 14:44:32;;;;;;;;;;;;;;;14.81;51.91;99617.66;5355526;32;34398;-64
2023/04/15 14:47:34;;;;;;;;;;;;;;;14.87;51.66;99611.94;5346704;32;35180;-76
2023/04/15 14:50:36;;;;;;;;;;;;;;;15.11;50.63;99619.97;5355760;32;34400;-76
2023/04/15 14:53:38;;;;;;;;;;;;;;;14.83;51.96;99631.66;5364430;32;34234;-76
2023/04/15 14:56:39;;;;;;;;;;;;;;;13.87;54.46;99636.22;5371970;32;34689;-68
2023/04/15 14:59:41;;;;;;;;;;;;;;;14.39;52.97;99631.97;5364288;32;44697;-64
2023/04/15 15:02:44;;;;;;;;;;;;;;;14.26;52.45;99624.84;5364298;32;33462;-77
2023/04/15 15:05:46;;;;;;;;;;;;;;;14.68;51.59;99633.50;5361266;32;34071;-77
2023/04/15 15:08:48;;;;;;;;;;;;;;;14.54;51.36;99620.37;5360208;32;33923;-78
2023/04/15 15:11:50;;;;;;;;;;;;;;;14.69;51.02;99629.09;5370307;32;33743;-78
2023/04/15 15:14:54;;;;;;;;;;;;;;;14.87;50.32;99633.09;5359225;32;35646;-77
2023/04/15 15:17:56;;;;;;;;;;;;;;;14.88;49.93;99635.66;5363447;32;34746;-72
2023/04/15 15:20:58;;;;;;;;;;;;;;;13.89;51.96;99644.91;5354286;32;34337;-64
2023/04/15 15:24:00;;;;;;;;;;;;;;;14.92;48.54;99638.94;5361775;32;33418;-76
2023/04/15 15:27:02;;;;;;;;;;;;;;;14.17;49.61;99648.38;5370931;32;34177;-77
2023/04/15 15:30:05;;;;;;;;;;;;;;;14.50;48.61;99648.00;5348434;32;33404;-77
2023/04/15 15:33:07;;;;;;;;;;;;;;;14.80;47.92;99647.72;5361313;32;34090;-77
2023/04/15 15:36:10;;;;;;;;;;;;;;;14.35;49.53;99658.59;5369717;32;33965;-63
2023/04/15 15:39:14;;;;;;;;;;;;;;;14.52;49.74;99660.16;5367648;32;45079;-66
2023/04/15 15:42:17;;;;;;;;;;;;;;;14.69;49.84;99663.47;5361765;32;34331;-64
2023/04/15 15:45:19;;;;;;;;;;;;;;;13.77;52.19;99678.22;5362218;32;33270;-63
2023/04/15 15:48:22;;;;;;;;;;;;;;;14.17;51.78;99674.81;5355867;32;34221;-65
2023/04/15 15:51:26;;;;;;;;;;;;;;;14.28;51.93;99677.59;5360893;32;33839;-74
2023/04/15 15:54:28;;;;;;;;;;;;;;;14.57;50.93;99687.16;5366847;32;35121;-77